Time;durP1;ratioP1;P1;durP2;ratioP2;P2;SDS_P1;SDS_P2;PMS_P1;PMS_P2;Temp;Humidity;BMP_temperature;BMP_pressure;BME280_temperature;BME280_humidity;BME280_pressure;Samples;Min_cycle;Max_cycle;Signal;HPM_P1;HPM_P2
2023/08/26 00:02:12;;;;;;;21.92;9.48;;;;;;;-139.19;100.00;56970.53;5057980;28;20427;-75
2023/08/26 00:05:36;;;;;;;23.02;10.23;;;;;;;-139.19;100.00;56970.53;5069023;28;20034;-75
2023/08/26 00:09:00;;;;;;;23.08;9.63;;;;;;;-139.19;100.00;56970.53;5070992;28;20103;-75
2023/08/26 00:12:24;;;;;;;19.50;9.57;;;;;;;-139.19;100.00;56970.53;5065265;28;20094;-76
2023/08/26 00:15:48;;;;;;;18.05;9.63;;;;;;;-139.19;100.00;56970.53;5063254;28;20022;-76
2023/08/26 00:19:12;;;;;;;23.98;9.43;;;;;;;-139.19;100.00;56970.53;5062889;28;20085;-75
2023/08/26 00:22:37;;;;;;;27.33;8.50;;;;;;;-139.19;100.00;56970.53;5068040;28;20033;-75
2023/08/26 00:26:01;;;;;;;29.67;8.70;;;;;;;-139.19;100.00;56970.53;5068015;28;20448;-75
2023/08/26 00:29:25;;;;;;;19.77;8.10;;;;;;;-139.19;100.00;56970.53;5064713;28;20370;-75
2023/08/26 00:32:49;;;;;;;21.65;8.63;;;;;;;-139.19;100.00;56970.53;5070542;28;20032;-76
2023/08/26 00:36:13;;;;;;;20.80;8.82;;;;;;;-139.19;100.00;56970.53;5070847;28;20188;-75
2023/08/26 00:39:37;;;;;;;21.88;7.90;;;;;;;-139.19;100.00;56970.53;5072701;28;20033;-75
2023/08/26 00:43:06;;;;;;;23.63;8.48;;;;;;;-139.19;100.00;56970.53;5072267;28;20032;-75
2023/08/26 00:46:30;;;;;;;24.67;9.05;;;;;;;-139.19;100.00;56970.53;5069053;28;20487;-75
2023/08/26 00:49:54;;;;;;;16.95;7.65;;;;;;;-139.19;100.00;56970.53;5063068;28;20052;-76
2023/08/26 00:53:18;;;;;;;15.85;8.38;;;;;;;-139.19;100.00;56970.53;5079399;28;20040;-75
2023/08/26 00:56:42;;;;;;;20.00;7.75;;;;;;;-139.19;100.00;56970.53;5068448;28;20082;-75
2023/08/26 01:00:06;;;;;;;25.05;8.32;;;;;;;-139.19;100.00;56970.53;5066833;28;20379;-75
2023/08/26 01:03:30;;;;;;;16.55;7.20;;;;;;;-139.19;100.00;56970.53;5074801;28;20123;-75
2023/08/26 01:06:54;;;;;;;23.35;8.30;;;;;;;-139.19;100.00;56970.53;5064727;28;20032;-75
2023/08/26 01:10:19;;;;;;;23.20;8.23;;;;;;;-139.19;100.00;56970.53;5065680;28;20025;-73
2023/08/26 01:14:10;;;;;;;26.67;8.35;;;;;;;-139.19;100.00;56970.53;5063652;28;20905;-76
2023/08/26 01:17:34;;;;;;;16.25;7.78;;;;;;;-139.19;100.00;56970.53;5071388;28;20032;-75
2023/08/26 01:20:59;;;;;;;15.88;7.65;;;;;;;-139.19;100.00;56970.53;5074466;28;20040;-75
2023/08/26 01:24:39;;;;;;;24.77;7.93;;;;;;;-139.19;100.00;56970.53;5070562;28;20475;-75
2023/08/26 01:28:03;;;;;;;15.20;7.28;;;;;;;-139.19;100.00;56970.53;5061403;28;20056;-75
2023/08/26 01:31:30;;;;;;;26.50;8.73;;;;;;;-139.19;100.00;56970.53;5064890;28;20025;-74
2023/08/26 01:35:03;;;;;;;14.88;7.75;;;;;;;-139.19;100.00;56970.53;5059227;28;20025;-74
2023/08/26 01:38:27;;;;;;;20.70;7.82;;;;;;;-139.19;100.00;56970.53;5066066;28;20483;-75
2023/08/26 01:41:53;;;;;;;15.57;6.88;;;;;;;-139.19;100.00;56970.53;5073866;28;20102;-75
2023/08/26 01:45:17;;;;;;;17.15;7.10;;;;;;;-139.19;100.00;56970.53;5072661;28;20032;-75
2023/08/26 01:48:43;;;;;;;19.58;7.03;;;;;;;-139.19;100.00;56970.53;5072041;28;20048;-75
2023/08/26 01:52:07;;;;;;;14.05;7.00;;;;;;;-139.19;100.00;56970.53;5066859;28;20036;-75
2023/08/26 01:55:31;;;;;;;16.27;7.38;;;;;;;-139.19;100.00;56970.53;5068414;28;20453;-75
2023/08/26 01:58:55;;;;;;;21.15;7.20;;;;;;;-139.19;100.00;56970.53;5073528;28;20495;-75
2023/08/26 02:02:19;;;;;;;15.15;7.80;;;;;;;-139.19;100.00;56970.53;5068152;28;20173;-75
2023/08/26 02:05:43;;;;;;;21.73;8.38;;;;;;;-139.19;100.00;56970.53;5062972;28;20024;-75
2023/08/26 02:09:07;;;;;;;17.38;7.47;;;;;;;-139.19;100.00;56970.53;5060467;28;20040;-75
2023/08/26 02:12:32;;;;;;;21.17;7.97;;;;;;;-139.19;100.00;56970.53;5066554;28;20475;-75
2023/08/26 02:15:56;;;;;;;26.25;8.90;;;;;;;-139.19;100.00;56970.53;5067882;28;20020;-75
2023/08/26 02:19:20;;;;;;;23.95;8.23;;;;;;;-139.19;100.00;56970.53;5065161;28;20065;-75
2023/08/26 02:22:44;;;;;;;14.80;8.00;;;;;;;-139.19;100.00;56970.53;5063676;28;20024;-75
2023/08/26 02:26:08;;;;;;;17.02;7.47;;;;;;;-139.19;100.00;56970.53;5061554;28;20111;-75
2023/08/26 02:29:31;;;;;;;22.48;10.07;;;;;;;-139.19;100.00;56970.53;5067628;28;20479;-75
2023/08/26 02:32:55;;;;;;;27.83;9.45;;;;;;;-139.19;100.00;56970.53;5059132;28;20040;-75
2023/08/26 02:36:19;;;;;;;24.13;9.18;;;;;;;-139.19;100.00;56970.53;5071915;28;20483;-74
2023/08/26 02:39:44;;;;;;;17.73;8.20;;;;;;;-139.19;100.00;56970.53;5065972;28;20029;-75
2023/08/26 02:43:08;;;;;;;24.00;8.40;;;;;;;-139.19;100.00;56970.53;5072191;28;20060;-75
2023/08/26 02:46:32;;;;;;;22.10;9.07;;;;;;;-139.19;100.00;56970.53;5066394;28;20476;-67
2023/08/26 02:49:56;;;;;;;16.73;7.22;;;;;;;-139.19;100.00;56970.53;5063374;28;20044;-67
2023/08/26 02:53:20;;;;;;;18.45;7.53;;;;;;;-139.19;100.00;56970.53;5064770;28;20469;-67
2023/08/26 02:56:44;;;;;;;29.88;7.65;;;;;;;-139.19;100.00;56970.53;5067580;28;20028;-67
2023/08/26 03:00:09;;;;;;;15.73;6.78;;;;;;;-139.19;100.00;56970.53;5063581;28;20024;-67
2023/08/26 03:03:33;;;;;;;20.63;7.53;;;;;;;-139.19;100.00;56970.53;5062946;28;20398;-68
2023/08/26 03:06:58;;;;;;;19.23;6.85;;;;;;;-139.19;100.00;56970.53;5067270;28;20028;-68
2023/08/26 03:10:22;;;;;;;21.05;6.93;;;;;;;-139.19;100.00;56970.53;5065018;28;20078;-68
2023/08/26 03:13:46;;;;;;;15.38;6.90;;;;;;;-139.19;100.00;56970.53;5061315;28;20081;-67
2023/08/26 03:17:09;;;;;;;28.23;6.47;;;;;;;-139.19;100.00;56970.53;5064972;28;20028;-67
2023/08/26 03:20:33;;;;;;;18.35;6.60;;;;;;;-139.19;100.00;56970.53;5070568;28;20033;-68
2023/08/26 03:23:58;;;;;;;15.00;6.28;;;;;;;-139.19;100.00;56970.53;5069532;28;20035;-67
2023/08/26 03:27:22;;;;;;;15.02;6.57;;;;;;;-139.19;100.00;56970.53;5067092;28;20480;-68
2023/08/26 03:30:45;;;;;;;14.93;6.53;;;;;;;-139.19;100.00;56970.53;5068709;28;20460;-69
2023/08/26 03:34:09;;;;;;;17.02;5.45;;;;;;;-139.19;100.00;56970.53;5070959;28;20032;-68
2023/08/26 03:37:33;;;;;;;15.93;6.60;;;;;;;-139.19;100.00;56970.53;5067377;28;20080;-68
2023/08/26 03:40:57;;;;;;;14.35;5.97;;;;;;;-139.19;100.00;56970.53;5066864;28;20519;-68
2023/08/26 03:44:21;;;;;;;15.02;6.20;;;;;;;-139.19;100.00;56970.53;5063979;28;20468;-68
2023/08/26 03:47:45;;;;;;;13.85;6.20;;;;;;;-139.19;100.00;56970.53;5064692;28;20099;-67
2023/08/26 03:51:09;;;;;;;15.02;6.40;;;;;;;-139.19;100.00;56970.53;5061991;28;20095;-67
2023/08/26 03:54:33;;;;;;;15.07;5.55;;;;;;;-139.19;100.00;56970.53;5057750;28;20097;-68
2023/08/26 03:57:57;;;;;;;11.25;6.03;;;;;;;-139.19;100.00;56970.53;5056032;28;20025;-67
2023/08/26 04:01:21;;;;;;;22.20;7.47;;;;;;;-139.19;100.00;56970.53;5064827;28;20032;-67
2023/08/26 04:04:48;;;;;;;19.55;6.88;;;;;;;-139.19;100.00;56970.53;5060269;28;20036;-68
2023/08/26 04:08:11;;;;;;;18.15;7.15;;;;;;;-139.19;100.00;56970.53;5060834;28;20125;-67
2023/08/26 04:11:35;;;;;;;18.17;7.28;;;;;;;-139.19;100.00;56970.53;5066141;28;20472;-67
2023/08/26 04:14:59;;;;;;;17.23;6.70;;;;;;;-139.19;100.00;56970.53;5067409;28;20443;-68
2023/08/26 04:18:23;;;;;;;10.15;6.45;;;;;;;-139.19;100.00;56970.53;5069793;28;20025;-67
2023/08/26 04:21:48;;;;;;;14.65;6.78;;;;;;;-139.19;100.00;56970.53;5073941;28;20028;-67
2023/08/26 04:25:12;;;;;;;20.23;6.70;;;;;;;-139.19;100.00;56970.53;5072946;28;20365;-68
2023/08/26 04:28:36;;;;;;;16.08;6.20;;;;;;;-139.19;100.00;56970.53;5075006;28;20119;-68
2023/08/26 04:31:59;;;;;;;14.07;6.13;;;;;;;-139.19;100.00;56970.53;5070472;28;20375;-67
2023/08/26 04:35:23;;;;;;;11.77;5.90;;;;;;;-139.19;100.00;56970.53;5073088;28;20040;-68
2023/08/26 04:38:47;;;;;;;13.38;5.43;;;;;;;-139.19;100.00;56970.53;5068550;28;20028;-67
2023/08/26 04:42:11;;;;;;;13.73;6.35;;;;;;;-139.19;100.00;56970.53;5071485;28;20077;-67
2023/08/26 04:45:35;;;;;;;22.13;5.97;;;;;;;-139.19;100.00;56970.53;5072999;28;20601;-68
2023/08/26 04:48:59;;;;;;;14.25;5.30;;;;;;;-139.19;100.00;56970.53;5075499;28;20036;-68
2023/08/26 04:52:22;;;;;;;12.80;6.00;;;;;;;-139.19;100.00;56970.53;5070684;28;20037;-67
2023/08/26 04:55:51;;;;;;;11.48;5.25;;;;;;;-139.19;100.00;56970.53;5069076;28;20103;-68
2023/08/26 04:59:15;;;;;;;15.45;5.55;;;;;;;-139.19;100.00;56970.53;5070850;28;20032;-68
2023/08/26 05:02:38;;;;;;;12.80;5.10;;;;;;;-139.19;100.00;56970.53;5073607;28;20529;-67
2023/08/26 05:06:03;;;;;;;13.50;4.55;;;;;;;-139.19;100.00;56970.53;5068256;28;20478;-67
2023/08/26 05:09:28;;;;;;;7.10;4.10;;;;;;;-139.19;100.00;56970.53;5070872;28;20418;-67
2023/08/26 05:12:52;;;;;;;18.90;4.35;;;;;;;-139.19;100.00;56970.53;5073300;28;20032;-68
2023/08/26 05:16:16;;;;;;;9.50;4.38;;;;;;;-139.19;100.00;56970.53;5067310;28;20107;-68
2023/08/26 05:19:40;;;;;;;20.02;4.82;;;;;;;-139.19;100.00;56970.53;5075475;28;20411;-67
2023/08/26 05:23:04;;;;;;;9.93;4.47;;;;;;;-139.19;100.00;56970.53;5072315;28;20029;-68
2023/08/26 05:26:28;;;;;;;9.18;3.50;;;;;;;-139.19;100.00;56970.53;5075040;28;20036;-67
2023/08/26 05:29:52;;;;;;;6.97;3.13;;;;;;;-139.19;100.00;56970.53;5074368;28;20098;-67
2023/08/26 05:33:16;;;;;;;8.52;3.08;;;;;;;-139.19;100.00;56970.53;5073990;28;20024;-67
2023/08/26 05:36:41;;;;;;;6.03;2.97;;;;;;;-139.19;100.00;56970.53;5071209;28;20056;-67
2023/08/26 05:40:05;;;;;;;10.43;3.17;;;;;;;-139.19;100.00;56970.53;5074553;28;20027;-68
2023/08/26 05:43:30;;;;;;;4.38;2.20;;;;;;;-139.19;100.00;56970.53;5072325;28;20472;-68
2023/08/26 05:46:56;;;;;;;7.00;2.65;;;;;;;-139.19;100.00;56970.53;5071840;28;20032;-68
2023/08/26 05:50:20;;;;;;;10.23;3.22;;;;;;;-139.19;100.00;56970.53;5073824;28;20432;-68
2023/08/26 05:53:44;;;;;;;13.18;3.15;;;;;;;-139.19;100.00;56970.53;5068914;28;20028;-68
2023/08/26 05:57:10;;;;;;;4.65;2.70;;;;;;;-139.19;100.00;56970.53;5071463;28;20464;-68
2023/08/26 06:00:34;;;;;;;10.27;2.95;;;;;;;-139.19;100.00;56970.53;5073897;28;20027;-68
2023/08/26 06:03:59;;;;;;;9.15;3.15;;;;;;;-139.19;100.00;56970.53;5068043;28;20024;-68
2023/08/26 06:07:23;;;;;;;4.28;2.50;;;;;;;-139.19;100.00;56970.53;5071007;28;20036;-68
2023/08/26 06:10:47;;;;;;;12.95;2.75;;;;;;;-139.19;100.00;56970.53;5073587;28;20475;-68
2023/08/26 06:14:11;;;;;;;8.80;2.47;;;;;;;-139.19;100.00;56970.53;5074441;28;20028;-68
2023/08/26 06:17:35;;;;;;;8.57;2.70;;;;;;;-139.19;100.00;56970.53;5070614;28;20082;-75
2023/08/26 06:20:59;;;;;;;10.10;2.83;;;;;;;-139.19;100.00;56970.53;5071686;28;20394;-75
2023/08/26 06:24:23;;;;;;;6.53;2.72;;;;;;;-139.19;100.00;56970.53;5074227;28;20032;-76
2023/08/26 06:27:47;;;;;;;6.95;2.38;;;;;;;-139.19;100.00;56970.53;5073665;28;20549;-75
2023/08/26 06:31:12;;;;;;;10.20;2.63;;;;;;;-139.19;100.00;56970.53;5072453;28;20476;-75
2023/08/26 06:34:36;;;;;;;9.50;2.70;;;;;;;-139.19;100.00;56970.53;5071007;28;20039;-74
2023/08/26 06:37:59;;;;;;;8.00;3.05;;;;;;;-139.19;100.00;56970.53;5070732;28;20077;-75
2023/08/26 06:41:23;;;;;;;7.35;2.53;;;;;;;-139.19;100.00;56970.53;5073573;28;20032;-75
2023/08/26 06:44:47;;;;;;;8.43;2.58;;;;;;;-139.19;100.00;56970.53;5061138;28;20024;-75
2023/08/26 06:48:11;;;;;;;5.78;2.28;;;;;;;-139.19;100.00;56970.53;5071394;28;20032;-75
2023/08/26 06:51:35;;;;;;;5.40;2.30;;;;;;;-139.19;100.00;56970.53;5071002;28;20072;-73
2023/08/26 06:54:59;;;;;;;14.30;2.20;;;;;;;-139.19;100.00;56970.53;5072608;28;20042;-74
2023/08/26 06:58:23;;;;;;;4.07;1.95;;;;;;;-139.19;100.00;56970.53;5068080;28;20036;-74
2023/08/26 07:01:47;;;;;;;3.97;2.13;;;;;;;-139.19;100.00;56970.53;5070056;28;20107;-72
2023/08/26 07:05:11;;;;;;;4.15;1.90;;;;;;;-139.19;100.00;56970.53;5072564;28;20501;-74
2023/08/26 07:08:35;;;;;;;8.88;2.42;;;;;;;-139.19;100.00;56970.53;5062784;28;20098;-74
2023/08/26 07:11:59;;;;;;;11.18;2.25;;;;;;;-139.19;100.00;56970.53;5071333;28;20028;-74
2023/08/26 07:15:23;;;;;;;6.20;2.08;;;;;;;-139.19;100.00;56970.53;5071616;28;20092;-74
2023/08/26 07:18:47;;;;;;;14.68;2.65;;;;;;;-139.19;100.00;56970.53;5065958;28;20475;-74
2023/08/26 07:22:12;;;;;;;8.63;2.25;;;;;;;-139.19;100.00;56970.53;5069050;28;20035;-74
2023/08/26 07:25:36;;;;;;;6.47;2.00;;;;;;;-139.19;100.00;56970.53;5069457;28;20028;-73
2023/08/26 07:29:00;;;;;;;8.55;2.60;;;;;;;-139.19;100.00;56970.53;5066105;28;20476;-74
2023/08/26 07:32:23;;;;;;;10.65;2.35;;;;;;;-139.19;100.00;56970.53;5071204;28;20499;-74
2023/08/26 07:35:50;;;;;;;5.47;1.85;;;;;;;-139.19;100.00;56970.53;5061431;28;20040;-73
2023/08/26 07:39:14;;;;;;;5.55;1.80;;;;;;;-139.19;100.00;56970.53;5067836;28;20065;-76
2023/08/26 07:42:38;;;;;;;6.72;2.45;;;;;;;-139.19;100.00;56970.53;5059552;28;20064;-76
2023/08/26 07:46:02;;;;;;;5.97;2.00;;;;;;;-139.19;100.00;56970.53;5062467;28;20479;-73
2023/08/26 07:49:26;;;;;;;5.03;1.92;;;;;;;-139.19;100.00;56970.53;5057184;28;20051;-74
2023/08/26 07:52:53;;;;;;;3.95;1.98;;;;;;;-139.19;100.00;56970.53;5064505;28;20073;-75
2023/08/26 07:56:17;;;;;;;5.70;1.92;;;;;;;-139.19;100.00;56970.53;5063437;28;20025;-76
2023/08/26 07:59:41;;;;;;;6.93;2.47;;;;;;;-139.19;100.00;56970.53;5060779;28;20103;-74
2023/08/26 08:03:05;;;;;;;6.22;2.33;;;;;;;-139.19;100.00;56970.53;5069350;28;20052;-77
2023/08/26 08:06:29;;;;;;;5.75;2.20;;;;;;;-139.19;100.00;56970.53;5064610;28;20021;-77
2023/08/26 08:09:54;;;;;;;5.50;2.13;;;;;;;-139.19;100.00;56970.53;5060440;28;20048;-74
2023/08/26 08:13:18;;;;;;;6.43;1.98;;;;;;;-139.19;100.00;56970.53;5068818;28;20028;-74
2023/08/26 08:16:42;;;;;;;8.23;2.17;;;;;;;-139.19;100.00;56970.53;5062678;28;20071;-73
2023/08/26 08:20:06;;;;;;;5.38;2.30;;;;;;;-139.19;100.00;56970.53;5068977;28;20033;-73
2023/08/26 08:23:33;;;;;;;5.63;2.20;;;;;;;-139.19;100.00;56970.53;5058995;28;20388;-73
2023/08/26 08:26:57;;;;;;;6.10;1.88;;;;;;;-139.19;100.00;56970.53;5067104;28;20033;-73
2023/08/26 08:30:21;;;;;;;3.60;1.88;;;;;;;-139.19;100.00;56970.53;5065006;28;20060;-73
2023/08/26 08:33:45;;;;;;;9.95;1.77;;;;;;;-139.19;100.00;56970.53;5059390;28;20037;-73
2023/08/26 08:37:09;;;;;;;10.65;1.85;;;;;;;-139.19;100.00;56970.53;5068433;28;20069;-68
2023/08/26 08:40:33;;;;;;;7.20;2.10;;;;;;;-139.19;100.00;56970.53;5065484;28;20033;-69
2023/08/26 08:44:02;;;;;;;10.55;2.25;;;;;;;-139.19;100.00;56970.53;5069906;28;20035;-69
2023/08/26 08:47:26;;;;;;;6.90;2.20;;;;;;;-139.19;100.00;56970.53;5061128;28;20070;-69
2023/08/26 08:50:53;;;;;;;10.23;2.53;;;;;;;-139.19;100.00;56970.53;5065445;28;20086;-69
2023/08/26 08:54:28;;;;;;;5.28;2.20;;;;;;;-139.19;100.00;56970.53;5069980;28;20117;-69
2023/08/26 08:57:53;;;;;;;5.40;1.80;;;;;;;-139.19;100.00;56970.53;5068206;28;20071;-69
2023/08/26 09:01:19;;;;;;;5.10;2.15;;;;;;;-139.19;100.00;56970.53;5066472;28;20028;-69
2023/08/26 09:04:44;;;;;;;4.93;2.00;;;;;;;-139.19;100.00;56970.53;5064899;28;20036;-69
2023/08/26 09:08:09;;;;;;;6.28;1.95;;;;;;;-139.19;100.00;56970.53;5069978;28;20078;-71
2023/08/26 09:11:33;;;;;;;5.45;1.88;;;;;;;-139.19;100.00;56970.53;5061033;28;20444;-71
2023/08/26 09:14:57;;;;;;;6.75;2.42;;;;;;;-139.19;100.00;56970.53;5064946;28;20032;-71
2023/08/26 09:18:21;;;;;;;8.55;3.10;;;;;;;-139.19;100.00;56970.53;5067343;28;20056;-70
2023/08/26 09:21:46;;;;;;;7.78;2.65;;;;;;;-139.19;100.00;56970.53;5066776;28;20025;-71
2023/08/26 09:25:10;;;;;;;5.50;2.22;;;;;;;-139.19;100.00;56970.53;5062562;28;20033;-71
2023/08/26 09:28:46;;;;;;;3.28;2.17;;;;;;;-139.19;100.00;56970.53;5065595;28;20506;-72
2023/08/26 09:32:09;;;;;;;4.45;2.20;;;;;;;-139.19;100.00;56970.53;5063353;28;20475;-71
2023/08/26 09:35:33;;;;;;;6.03;1.98;;;;;;;-139.19;100.00;56970.53;5061859;28;20028;-71
2023/08/26 09:38:57;;;;;;;16.13;3.22;;;;;;;-139.19;100.00;56970.53;5057609;28;20051;-70
2023/08/26 09:42:23;;;;;;;4.07;1.90;;;;;;;-139.19;100.00;56970.53;5060460;28;20059;-71
2023/08/26 09:45:48;;;;;;;7.93;2.25;;;;;;;-139.19;100.00;56970.53;5059599;28;20028;-70
2023/08/26 09:49:19;;;;;;;5.60;1.80;;;;;;;-139.19;100.00;56970.53;5062571;28;20058;-77
2023/08/26 09:52:47;;;;;;;6.25;1.92;;;;;;;-139.19;100.00;56970.53;5066685;28;20047;-77
2023/08/26 09:56:11;;;;;;;4.38;2.30;;;;;;;-139.19;100.00;56970.53;5063735;28;20483;-72
2023/08/26 09:59:35;;;;;;;4.15;1.67;;;;;;;-139.19;100.00;56970.53;5063836;28;20111;-73
2023/08/26 10:03:05;;;;;;;5.68;2.08;;;;;;;-139.19;100.00;56970.53;5059307;28;20079;-73
2023/08/26 10:06:34;;;;;;;5.38;1.80;;;;;;;-139.19;100.00;56970.53;5063493;28;20499;-73
2023/08/26 10:10:10;;;;;;;3.92;1.75;;;;;;;-139.19;100.00;56970.53;5063397;28;20031;-74
2023/08/26 10:13:40;;;;;;;6.05;2.35;;;;;;;-139.19;100.00;56970.53;5070614;28;20509;-73
2023/08/26 10:17:07;;;;;;;5.68;2.08;;;;;;;-139.19;100.00;56970.53;5064298;28;20497;-73
2023/08/26 10:20:32;;;;;;;4.38;2.22;;;;;;;-139.19;100.00;56970.53;5054618;28;20488;-67
2023/08/26 10:23:56;;;;;;;3.75;1.80;;;;;;;-139.19;100.00;56970.53;5070623;28;20071;-69
2023/08/26 10:27:20;;;;;;;4.57;2.08;;;;;;;-139.19;100.00;56970.53;5069014;28;20028;-69
2023/08/26 10:30:45;;;;;;;7.28;2.72;;;;;;;-139.19;100.00;56970.53;5053991;28;20439;-69
2023/08/26 10:34:09;;;;;;;20.45;5.55;;;;;;;-139.19;100.00;56970.53;5070733;28;20357;-70
2023/08/26 10:37:34;;;;;;;25.88;14.65;;;;;;;-139.19;100.00;56970.53;5069541;28;20028;-69
2023/08/26 10:41:11;;;;;;;8.80;3.33;;;;;;;-139.19;100.00;56970.53;5055605;28;20044;-69
2023/08/26 10:44:45;;;;;;;7.20;2.13;;;;;;;-139.19;100.00;56970.53;5071830;28;20357;-69
2023/08/26 10:48:09;;;;;;;7.72;2.10;;;;;;;-139.19;100.00;56970.53;5069052;28;20536;-70
2023/08/26 10:51:36;;;;;;;7.00;2.03;;;;;;;-139.19;100.00;56970.53;5064311;28;20075;-69
2023/08/26 10:55:11;;;;;;;9.30;2.63;;;;;;;-139.19;100.00;56970.53;5064895;28;20033;-69
2023/08/26 10:58:42;;;;;;;7.10;2.13;;;;;;;-139.19;100.00;56970.53;5070288;28;20028;-70
2023/08/26 11:02:08;;;;;;;7.63;2.10;;;;;;;-139.19;100.00;56970.53;5072494;28;20028;-69
2023/08/26 11:05:43;;;;;;;6.22;2.40;;;;;;;-139.19;100.00;56970.53;5062043;28;20029;-70
2023/08/26 11:09:08;;;;;;;8.13;2.38;;;;;;;-139.19;100.00;56970.53;5061513;28;20028;-69
2023/08/26 11:12:32;;;;;;;8.32;2.97;;;;;;;-139.19;100.00;56970.53;5066807;28;20039;-69
2023/08/26 11:16:03;;;;;;;5.43;2.70;;;;;;;-139.19;100.00;56970.53;5061350;28;20036;-69
2023/08/26 11:19:27;;;;;;;4.15;1.90;;;;;;;-139.19;100.00;56970.53;5058866;28;20078;-69
2023/08/26 11:22:52;;;;;;;8.43;2.35;;;;;;;-139.19;100.00;56970.53;5066270;28;20377;-69
2023/08/26 11:26:22;;;;;;;9.13;1.73;;;;;;;-139.19;100.00;56970.53;5067562;28;20029;-75
2023/08/26 11:29:46;;;;;;;5.97;2.10;;;;;;;-139.19;100.00;56970.53;5069792;28;20032;-76
2023/08/26 11:33:12;;;;;;;5.38;2.13;;;;;;;-139.19;100.00;56970.53;5063829;28;20387;-75
2023/08/26 11:36:39;;;;;;;6.97;2.20;;;;;;;-139.19;100.00;56970.53;5069556;28;20028;-77
2023/08/26 11:40:06;;;;;;;5.88;1.80;;;;;;;-139.19;100.00;56970.53;5058593;28;20469;-70
2023/08/26 11:43:30;;;;;;;6.15;2.03;;;;;;;-139.19;100.00;56970.53;5058077;28;20036;-70
2023/08/26 11:46:56;;;;;;;6.97;1.73;;;;;;;-139.19;100.00;56970.53;5060984;28;20060;-70
2023/08/26 11:50:21;;;;;;;4.20;1.83;;;;;;;-139.19;100.00;56970.53;5058223;28;20482;-70
2023/08/26 11:53:47;;;;;;;6.15;2.20;;;;;;;-139.19;100.00;56970.53;5058650;28;20028;-71
2023/08/26 11:57:12;;;;;;;5.93;2.42;;;;;;;-139.19;100.00;56970.53;5061702;28;20031;-70
2023/08/26 12:00:37;;;;;;;6.55;2.38;;;;;;;-139.19;100.00;56970.53;5061989;28;20032;-70
2023/08/26 12:04:11;;;;;;;8.20;2.53;;;;;;;-139.19;100.00;56970.53;5051394;28;20042;-70
2023/08/26 12:07:35;;;;;;;7.57;2.28;;;;;;;-139.19;100.00;56970.53;5052394;28;20041;-70
2023/08/26 12:11:06;;;;;;;7.53;2.25;;;;;;;-139.19;100.00;56970.53;5060494;28;20048;-69
2023/08/26 12:14:36;;;;;;;7.53;2.05;;;;;;;-139.19;100.00;56970.53;5052809;28;20079;-69
2023/08/26 12:18:02;;;;;;;6.13;2.42;;;;;;;-139.19;100.00;56970.53;5057028;28;20074;-69
2023/08/26 12:21:29;;;;;;;5.32;1.90;;;;;;;-139.19;100.00;56970.53;5060226;28;20032;-69
2023/08/26 12:24:55;;;;;;;7.30;2.33;;;;;;;-139.19;100.00;56970.53;5057993;28;20040;-69
2023/08/26 12:28:24;;;;;;;7.40;2.63;;;;;;;-139.19;100.00;56970.53;5064334;28;20031;-69
2023/08/26 12:31:49;;;;;;;8.80;2.50;;;;;;;-139.19;100.00;56970.53;5063827;28;20047;-69
2023/08/26 12:35:13;;;;;;;5.78;2.05;;;;;;;-139.19;100.00;56970.53;5056944;28;20458;-68
2023/08/26 12:38:37;;;;;;;7.78;2.30;;;;;;;-139.19;100.00;56970.53;5066185;28;20487;-69
2023/08/26 12:42:01;;;;;;;9.05;2.08;;;;;;;-139.19;100.00;56970.53;5075962;28;20048;-69
2023/08/26 12:45:25;;;;;;;7.25;2.42;;;;;;;-139.19;100.00;56970.53;5070970;28;20064;-69
2023/08/26 12:48:50;;;;;;;9.27;2.67;;;;;;;-139.19;100.00;56970.53;5056168;28;20049;-69
2023/08/26 12:52:14;;;;;;;6.95;2.33;;;;;;;-139.19;100.00;56970.53;5076039;28;20029;-68
2023/08/26 12:55:38;;;;;;;10.00;2.40;;;;;;;-139.19;100.00;56970.53;5075920;28;20071;-69
2023/08/26 12:59:03;;;;;;;9.52;2.50;;;;;;;-139.19;100.00;56970.53;5075552;28;20387;-69
2023/08/26 13:02:27;;;;;;;5.32;2.22;;;;;;;-139.19;100.00;56970.53;5056384;28;20033;-69
2023/08/26 13:05:57;;;;;;;7.30;2.13;;;;;;;-139.19;100.00;56970.53;5064373;28;20379;-69
2023/08/26 13:09:21;;;;;;;4.35;2.38;;;;;;;-139.19;100.00;56970.53;5069293;28;20051;-69
2023/08/26 13:12:44;;;;;;;6.95;2.15;;;;;;;-139.19;100.00;56970.53;5075137;28;20040;-69
2023/08/26 13:16:09;;;;;;;8.65;3.17;;;;;;;-139.19;100.00;56970.53;5061922;28;20073;-69
2023/08/26 13:19:33;;;;;;;7.00;2.28;;;;;;;-139.19;100.00;56970.53;5064320;28;20063;-69
2023/08/26 13:22:57;;;;;;;5.30;2.05;;;;;;;-139.19;100.00;56970.53;5069632;28;20407;-74
2023/08/26 13:26:20;;;;;;;4.90;2.00;;;;;;;-139.19;100.00;56970.53;5067858;28;20499;-75
2023/08/26 13:29:44;;;;;;;5.28;2.15;;;;;;;-139.19;100.00;56970.53;5074173;28;20036;-75
2023/08/26 13:33:08;;;;;;;4.95;2.42;;;;;;;-139.19;100.00;56970.53;5059082;28;20116;-74
2023/08/26 13:36:32;;;;;;;6.72;2.10;;;;;;;-139.19;100.00;56970.53;5060765;28;20028;-73
2023/08/26 13:39:56;;;;;;;11.68;2.63;;;;;;;-139.19;100.00;56970.53;5061028;28;20033;-75
2023/08/26 13:43:20;;;;;;;5.38;2.67;;;;;;;-139.19;100.00;56970.53;5070235;28;20060;-70
2023/08/26 13:46:43;;;;;;;6.30;2.70;;;;;;;-139.19;100.00;56970.53;5072104;28;20093;-70
2023/08/26 13:50:07;;;;;;;8.20;2.50;;;;;;;-139.19;100.00;56970.53;5069120;28;20123;-70
2023/08/26 13:53:31;;;;;;;5.45;2.72;;;;;;;-139.19;100.00;56970.53;5069487;28;20395;-70
2023/08/26 13:56:55;;;;;;;6.35;2.70;;;;;;;-139.19;100.00;56970.53;5065747;28;20468;-70
2023/08/26 14:00:19;;;;;;;6.53;2.47;;;;;;;-139.19;100.00;56970.53;5068744;28;20077;-70
2023/08/26 14:03:43;;;;;;;9.02;2.80;;;;;;;-139.19;100.00;56970.53;5065197;28;20107;-70
2023/08/26 14:07:07;;;;;;;11.93;2.88;;;;;;;-139.19;100.00;56970.53;5067675;28;20028;-70
2023/08/26 14:10:31;;;;;;;8.10;2.60;;;;;;;-139.19;100.00;56970.53;5059459;28;20035;-70
2023/08/26 14:13:54;;;;;;;7.40;2.83;;;;;;;-139.19;100.00;56970.53;5061384;28;20037;-70
2023/08/26 14:17:18;;;;;;;10.32;3.13;;;;;;;-139.19;100.00;56970.53;5062054;28;20159;-68
2023/08/26 14:20:44;;;;;;;8.50;3.05;;;;;;;-139.19;100.00;56970.53;5064127;28;20045;-68
2023/08/26 14:24:08;;;;;;;4.57;2.22;;;;;;;-139.19;100.00;56970.53;5077040;28;20027;-69
2023/08/26 14:27:32;;;;;;;11.75;3.33;;;;;;;-139.19;100.00;56970.53;5073637;28;20082;-70
2023/08/26 14:30:56;;;;;;;10.32;3.17;;;;;;;-139.19;100.00;56970.53;5069291;28;20101;-69
2023/08/26 14:34:19;;;;;;;10.30;2.80;;;;;;;-139.19;100.00;56970.53;5068486;28;20040;-69
2023/08/26 14:37:43;;;;;;;12.65;3.53;;;;;;;-139.19;100.00;56970.53;5073712;28;20084;-69
2023/08/26 14:41:07;;;;;;;6.97;2.58;;;;;;;-139.19;100.00;56970.53;5075711;28;20067;-69
2023/08/26 14:44:33;;;;;;;12.98;3.03;;;;;;;-139.19;100.00;56970.53;5071462;28;20032;-69
2023/08/26 14:47:56;;;;;;;6.97;2.85;;;;;;;-139.19;100.00;56970.53;5078311;28;20450;-69
2023/08/26 14:51:20;;;;;;;8.02;2.38;;;;;;;-139.19;100.00;56970.53;5071019;28;20032;-69
2023/08/26 14:54:44;;;;;;;10.30;2.97;;;;;;;-139.19;100.00;56970.53;5073806;28;20036;-69
2023/08/26 14:58:09;;;;;;;10.48;2.70;;;;;;;-139.19;100.00;56970.53;5071617;28;20071;-69
2023/08/26 15:01:33;;;;;;;11.25;2.70;;;;;;;-139.19;100.00;56970.53;5071521;28;20032;-70
2023/08/26 15:04:56;;;;;;;5.43;2.95;;;;;;;-139.19;100.00;56970.53;5073695;28;20031;-69
2023/08/26 15:08:20;;;;;;;11.75;3.25;;;;;;;-139.19;100.00;56970.53;5073287;28;20028;-69
2023/08/26 15:11:44;;;;;;;6.53;2.38;;;;;;;-139.19;100.00;56970.53;5072177;28;20594;-69
2023/08/26 15:15:08;;;;;;;11.70;2.80;;;;;;;-139.19;100.00;56970.53;5051511;28;20118;-70
2023/08/26 15:18:32;;;;;;;10.50;2.78;;;;;;;-139.19;100.00;56970.53;5065520;28;20024;-69
2023/08/26 15:21:56;;;;;;;11.05;2.85;;;;;;;-139.19;100.00;56970.53;5069842;28;20120;-69
2023/08/26 15:25:20;;;;;;;6.00;2.78;;;;;;;-139.19;100.00;56970.53;5071317;28;20028;-69